Twin Rock, Colorado
Current Conditions -  °F | °C
As of 8:56 PM on Saturday 25 Oct 2014 (Local Time) from KCWN Reporting Station
Clear Clear  
Wind Chill: 64°   Ceiling: Unl
Heat Index: 64°   Visibility: 10mi
Dew Point: 21°   Wind: 5mph
Humidity: 20%   Direction: 250°WSW
Pressure: 30.13"   Gusts: NA
Location:  38.8466°N, 105.301°W
Report Text: KCWN 260256Z AUTO 25004KT 10SM CLR 18/M06 A3013 RMK AO2 SLP123 T01761060 57007
Loading
Personal Weather Stations






























Interactive Weather Map
Tropical Storm Tracking
New forecast layout! Learn more

10-Day Weather Forecast

Advertisements
Track Severe Weather on mobile